Terminal Aerodrome Forecast
Issued by NWS Green Bay, WI

Home | Current Version | Previous Version | Graphics & Text | Print | Product List | Glossary On
Versions: 1 2 3 4 5 6 7 8 9 10 11 12 13 14 15 16 17 18 19 20 21 22 23 24 25 26 27 28 29 30 31 32 33 34 35 36
586
FTUS43 KGRB 141136
TAFGRB
TAF
KGRB 141136Z 1412/1512 03011KT P6SM BKN120
     FM141500 05012G17KT P6SM SCT035 BKN050
     FM141800 06012G19KT P6SM -RA OVC025
     FM142000 06012G19KT 5SM -RA OVC013
     FM142200 04014G22KT 3SM RA BR OVC007
     FM150000 04016G24KT 2SM RA BR OVC004
     FM150800 01016G24KT 3SM -RA BR OVC004=

USA.gov is the U.S. government's official web portal to all federal, state and local government web resources and services.